sensor_id;sensor_type;location;lat;lon;timestamp;pressure;altitude;pressure_sealevel;temperature;humidity
36748;BME280;22716;51.556;5.080;2023-01-28T00:01:27;102195.13;;;3.90;100.00
36748;BME280;22716;51.556;5.080;2023-01-28T00:03:56;102193.16;;;3.84;100.00
36748;BME280;22716;51.556;5.080;2023-01-28T00:06:25;102199.41;;;3.89;100.00
36748;BME280;22716;51.556;5.080;2023-01-28T00:08:53;102196.50;;;3.82;100.00
36748;BME280;22716;51.556;5.080;2023-01-28T00:11:22;102201.00;;;3.86;100.00
36748;BME280;22716;51.556;5.080;2023-01-28T00:13:52;102191.19;;;3.79;100.00
36748;BME280;22716;51.556;5.080;2023-01-28T00:16:24;102212.38;;;3.89;100.00
36748;BME280;22716;51.556;5.080;2023-01-28T00:18:53;102211.13;;;3.80;100.00
36748;BME280;22716;51.556;5.080;2023-01-28T00:21:22;102207.72;;;3.81;100.00
36748;BME280;22716;51.556;5.080;2023-01-28T00:23:53;102204.88;;;3.75;100.00
36748;BME280;22716;51.556;5.080;2023-01-28T00:26:23;102202.22;;;3.73;100.00
36748;BME280;22716;51.556;5.080;2023-01-28T00:28:52;102206.72;;;3.77;100.00
36748;BME280;22716;51.556;5.080;2023-01-28T00:31:24;102214.03;;;3.87;100.00
36748;BME280;22716;51.556;5.080;2023-01-28T00:33:54;102213.06;;;3.85;100.00
36748;BME280;22716;51.556;5.080;2023-01-28T00:36:24;102224.16;;;3.81;100.00
36748;BME280;22716;51.556;5.080;2023-01-28T00:38:55;102220.44;;;3.75;100.00
36748;BME280;22716;51.556;5.080;2023-01-28T00:41:26;102217.13;;;3.79;100.00
36748;BME280;22716;51.556;5.080;2023-01-28T00:43:55;102215.41;;;3.79;100.00
36748;BME280;22716;51.556;5.080;2023-01-28T00:46:26;102220.38;;;3.73;100.00
36748;BME280;22716;51.556;5.080;2023-01-28T00:48:55;102214.09;;;3.67;100.00
36748;BME280;22716;51.556;5.080;2023-01-28T00:51:24;102218.38;;;3.66;100.00
36748;BME280;22716;51.556;5.080;2023-01-28T00:53:53;102227.09;;;3.68;100.00
36748;BME280;22716;51.556;5.080;2023-01-28T00:56:21;102218.50;;;3.69;100.00
36748;BME280;22716;51.556;5.080;2023-01-28T00:58:50;102226.16;;;3.66;100.00
36748;BME280;22716;51.556;5.080;2023-01-28T01:01:21;102226.06;;;3.65;100.00
36748;BME280;22716;51.556;5.080;2023-01-28T01:03:53;102233.03;;;3.66;100.00
36748;BME280;22716;51.556;5.080;2023-01-28T01:06:28;102231.50;;;3.71;100.00
36748;BME280;22716;51.556;5.080;2023-01-28T01:08:57;102237.69;;;3.74;100.00
36748;BME280;22716;51.556;5.080;2023-01-28T01:11:25;102238.50;;;3.73;100.00
36748;BME280;22716;51.556;5.080;2023-01-28T01:13:56;102230.63;;;3.70;100.00
36748;BME280;22716;51.556;5.080;2023-01-28T01:16:27;102226.19;;;3.68;100.00
36748;BME280;22716;51.556;5.080;2023-01-28T01:18:59;102227.34;;;3.74;100.00
36748;BME280;22716;51.556;5.080;2023-01-28T01:21:29;102222.28;;;3.77;100.00
36748;BME280;22716;51.556;5.080;2023-01-28T01:23:58;102225.91;;;3.82;100.00
36748;BME280;22716;51.556;5.080;2023-01-28T01:26:27;102219.69;;;3.77;100.00
36748;BME280;22716;51.556;5.080;2023-01-28T01:28:55;102221.38;;;3.77;100.00
36748;BME280;22716;51.556;5.080;2023-01-28T01:31:24;102210.25;;;3.57;100.00
36748;BME280;22716;51.556;5.080;2023-01-28T01:33:53;102223.31;;;3.60;100.00
36748;BME280;22716;51.556;5.080;2023-01-28T01:36:24;102210.28;;;3.59;100.00
36748;BME280;22716;51.556;5.080;2023-01-28T01:38:53;102224.38;;;3.65;100.00
36748;BME280;22716;51.556;5.080;2023-01-28T01:41:26;102231.25;;;3.65;100.00
36748;BME280;22716;51.556;5.080;2023-01-28T01:43:57;102226.97;;;3.65;100.00
36748;BME280;22716;51.556;5.080;2023-01-28T01:46:33;102230.38;;;3.64;100.00
36748;BME280;22716;51.556;5.080;2023-01-28T01:49:15;102221.41;;;3.56;100.00
36748;BME280;22716;51.556;5.080;2023-01-28T01:51:52;102224.84;;;3.55;100.00
36748;BME280;22716;51.556;5.080;2023-01-28T01:54:24;102220.41;;;3.53;100.00
36748;BME280;22716;51.556;5.080;2023-01-28T01:56:54;102220.25;;;3.48;100.00
36748;BME280;22716;51.556;5.080;2023-01-28T01:59:27;102221.94;;;3.48;100.00
36748;BME280;22716;51.556;5.080;2023-01-28T02:01:58;102222.03;;;3.49;100.00
36748;BME280;22716;51.556;5.080;2023-01-28T02:04:30;102228.19;;;3.53;100.00
36748;BME280;22716;51.556;5.080;2023-01-28T02:07:04;102229.41;;;3.61;100.00
36748;BME280;22716;51.556;5.080;2023-01-28T02:09:35;102224.94;;;3.58;100.00
36748;BME280;22716;51.556;5.080;2023-01-28T02:12:09;102231.66;;;3.53;100.00
36748;BME280;22716;51.556;5.080;2023-01-28T02:14:44;102230.66;;;3.50;100.00
36748;BME280;22716;51.556;5.080;2023-01-28T02:17:13;102235.66;;;3.45;100.00
36748;BME280;22716;51.556;5.080;2023-01-28T02:19:48;102220.94;;;3.44;100.00
36748;BME280;22716;51.556;5.080;2023-01-28T02:25:44;102234.00;;;3.47;100.00
36748;BME280;22716;51.556;5.080;2023-01-28T02:28:26;102236.03;;;3.54;100.00
36748;BME280;22716;51.556;5.080;2023-01-28T02:31:05;102237.69;;;3.52;100.00
36748;BME280;22716;51.556;5.080;2023-01-28T02:33:40;102239.25;;;3.49;100.00
36748;BME280;22716;51.556;5.080;2023-01-28T02:36:17;102196.00;;;3.25;100.00
36748;BME280;22716;51.556;5.080;2023-01-28T02:38:53;102233.84;;;3.43;100.00
36748;BME280;22716;51.556;5.080;2023-01-28T02:41:27;102232.66;;;3.34;100.00
36748;BME280;22716;51.556;5.080;2023-01-28T02:44:01;102231.69;;;3.32;100.00
36748;BME280;22716;51.556;5.080;2023-01-28T02:46:35;102229.16;;;3.34;100.00
36748;BME280;22716;51.556;5.080;2023-01-28T02:49:20;102229.03;;;3.31;100.00
36748;BME280;22716;51.556;5.080;2023-01-28T02:52:14;102240.41;;;3.34;100.00
36748;BME280;22716;51.556;5.080;2023-01-28T02:55:09;102237.75;;;3.33;100.00
36748;BME280;22716;51.556;5.080;2023-01-28T02:57:44;102244.72;;;3.34;100.00
36748;BME280;22716;51.556;5.080;2023-01-28T03:00:24;102239.66;;;3.37;100.00
36748;BME280;22716;51.556;5.080;2023-01-28T03:03:01;102219.63;;;3.33;100.00
36748;BME280;22716;51.556;5.080;2023-01-28T03:05:36;102218.94;;;3.37;100.00
36748;BME280;22716;51.556;5.080;2023-01-28T03:08:06;102236.47;;;3.44;100.00
36748;BME280;22716;51.556;5.080;2023-01-28T03:10:48;102236.22;;;3.38;100.00
36748;BME280;22716;51.556;5.080;2023-01-28T03:13:30;102248.06;;;3.31;100.00
36748;BME280;22716;51.556;5.080;2023-01-28T03:16:14;102252.34;;;3.31;100.00
36748;BME280;22716;51.556;5.080;2023-01-28T03:18:56;102245.53;;;3.33;100.00
36748;BME280;22716;51.556;5.080;2023-01-28T03:21:41;102253.28;;;3.33;100.00
36748;BME280;22716;51.556;5.080;2023-01-28T03:24:25;102249.75;;;3.31;100.00
36748;BME280;22716;51.556;5.080;2023-01-28T03:27:13;102252.47;;;3.34;100.00
36748;BME280;22716;51.556;5.080;2023-01-28T03:29:59;102242.94;;;3.33;100.00
36748;BME280;22716;51.556;5.080;2023-01-28T03:32:46;102251.50;;;3.32;100.00
36748;BME280;22716;51.556;5.080;2023-01-28T03:35:30;102248.13;;;3.33;100.00
36748;BME280;22716;51.556;5.080;2023-01-28T03:38:13;102244.72;;;3.34;100.00
36748;BME280;22716;51.556;5.080;2023-01-28T03:40:49;102245.53;;;3.33;100.00
36748;BME280;22716;51.556;5.080;2023-01-28T03:43:18;102243.56;;;3.27;100.00
36748;BME280;22716;51.556;5.080;2023-01-28T03:45:47;102256.56;;;3.29;100.00
36748;BME280;22716;51.556;5.080;2023-01-28T03:48:21;102250.53;;;3.28;100.00
36748;BME280;22716;51.556;5.080;2023-01-28T03:50:51;102260.75;;;3.25;100.00
36748;BME280;22716;51.556;5.080;2023-01-28T03:53:21;102261.53;;;3.23;100.00
36748;BME280;22716;51.556;5.080;2023-01-28T03:55:51;102261.44;;;3.21;100.00
36748;BME280;22716;51.556;5.080;2023-01-28T03:58:22;102257.97;;;3.21;100.00
36748;BME280;22716;51.556;5.080;2023-01-28T04:01:11;102262.50;;;3.26;100.00
36748;BME280;22716;51.556;5.080;2023-01-28T04:03:42;102258.16;;;3.25;100.00
36748;BME280;22716;51.556;5.080;2023-01-28T04:06:11;102257.19;;;3.23;100.00
36748;BME280;22716;51.556;5.080;2023-01-28T04:08:39;102262.22;;;3.19;100.00
36748;BME280;22716;51.556;5.080;2023-01-28T04:11:13;102261.19;;;3.15;100.00
36748;BME280;22716;51.556;5.080;2023-01-28T04:13:46;102268.97;;;3.15;100.00
36748;BME280;22716;51.556;5.080;2023-01-28T04:16:17;102264.59;;;3.14;100.00
36748;BME280;22716;51.556;5.080;2023-01-28T04:18:48;102281.22;;;3.19;100.00
36748;BME280;22716;51.556;5.080;2023-01-28T04:21:17;102275.91;;;3.16;100.00
36748;BME280;22716;51.556;5.080;2023-01-28T04:23:46;102274.34;;;3.20;100.00
36748;BME280;22716;51.556;5.080;2023-01-28T04:26:14;102278.75;;;3.22;100.00
36748;BME280;22716;51.556;5.080;2023-01-28T04:28:43;102267.56;;;3.23;100.00
36748;BME280;22716;51.556;5.080;2023-01-28T04:31:12;102270.78;;;3.18;100.00
36748;BME280;22716;51.556;5.080;2023-01-28T04:33:41;102269.75;;;3.14;100.00
36748;BME280;22716;51.556;5.080;2023-01-28T04:36:12;102267.25;;;3.16;100.00
36748;BME280;22716;51.556;5.080;2023-01-28T04:38:41;102250.69;;;3.12;100.00
36748;BME280;22716;51.556;5.080;2023-01-28T04:41:09;102260.88;;;3.08;100.00
36748;BME280;22716;51.556;5.080;2023-01-28T04:43:38;102261.75;;;3.08;100.00
36748;BME280;22716;51.556;5.080;2023-01-28T04:46:07;102262.75;;;3.12;100.00
36748;BME280;22716;51.556;5.080;2023-01-28T04:48:36;102260.75;;;3.05;100.00
36748;BME280;22716;51.556;5.080;2023-01-28T04:51:05;102264.53;;;3.13;100.00
36748;BME280;22716;51.556;5.080;2023-01-28T04:53:37;102258.84;;;3.01;100.00
36748;BME280;22716;51.556;5.080;2023-01-28T04:56:06;102270.47;;;3.10;100.00
36748;BME280;22716;51.556;5.080;2023-01-28T04:58:35;102278.28;;;3.12;100.00
36748;BME280;22716;51.556;5.080;2023-01-28T05:01:04;102267.81;;;3.09;100.00
36748;BME280;22716;51.556;5.080;2023-01-28T05:03:33;102274.91;;;3.13;100.00
36748;BME280;22716;51.556;5.080;2023-01-28T05:06:01;102265.22;;;3.09;100.00
36748;BME280;22716;51.556;5.080;2023-01-28T05:08:30;102273.81;;;3.08;100.00
36748;BME280;22716;51.556;5.080;2023-01-28T05:11:01;102272.97;;;3.09;100.00
36748;BME280;22716;51.556;5.080;2023-01-28T05:13:30;102280.06;;;3.13;100.00
36748;BME280;22716;51.556;5.080;2023-01-28T05:15:59;102276.41;;;3.08;100.00
36748;BME280;22716;51.556;5.080;2023-01-28T05:18:27;102283.34;;;3.09;100.00
36748;BME280;22716;51.556;5.080;2023-01-28T05:20:56;102279.00;;;3.08;100.00
36748;BME280;22716;51.556;5.080;2023-01-28T05:23:25;102269.88;;;2.97;100.00
36748;BME280;22716;51.556;5.080;2023-01-28T05:25:54;102266.59;;;3.01;100.00
36748;BME280;22716;51.556;5.080;2023-01-28T05:28:25;102261.25;;;2.96;100.00
36748;BME280;22716;51.556;5.080;2023-01-28T05:30:54;102273.44;;;2.99;100.00
36748;BME280;22716;51.556;5.080;2023-01-28T05:33:23;102273.63;;;3.03;100.00
36748;BME280;22716;51.556;5.080;2023-01-28T05:35:51;102263.25;;;3.03;100.00
36748;BME280;22716;51.556;5.080;2023-01-28T05:38:20;102272.84;;;3.06;100.00
36748;BME280;22716;51.556;5.080;2023-01-28T05:40:49;102259.72;;;3.01;100.00
36748;BME280;22716;51.556;5.080;2023-01-28T05:43:17;102274.63;;;3.07;100.00
36748;BME280;22716;51.556;5.080;2023-01-28T05:45:49;102269.19;;;3.01;100.00
36748;BME280;22716;51.556;5.080;2023-01-28T05:48:17;102271.66;;;2.98;100.00
36748;BME280;22716;51.556;5.080;2023-01-28T05:50:46;102254.84;;;2.88;100.00
36748;BME280;22716;51.556;5.080;2023-01-28T05:53:15;102274.09;;;2.95;100.00
36748;BME280;22716;51.556;5.080;2023-01-28T05:55:47;102284.53;;;2.96;100.00
36748;BME280;22716;51.556;5.080;2023-01-28T05:58:16;102279.41;;;2.98;100.00
36748;BME280;22716;51.556;5.080;2023-01-28T06:00:44;102281.97;;;2.96;100.00
36748;BME280;22716;51.556;5.080;2023-01-28T06:03:16;102274.88;;;2.92;100.00
36748;BME280;22716;51.556;5.080;2023-01-28T06:05:45;102276.66;;;2.93;100.00
36748;BME280;22716;51.556;5.080;2023-01-28T06:08:13;102283.78;;;2.99;100.00
36748;BME280;22716;51.556;5.080;2023-01-28T06:10:42;102286.38;;;2.99;100.00
36748;BME280;22716;51.556;5.080;2023-01-28T06:13:11;102277.84;;;3.01;100.00
36748;BME280;22716;51.556;5.080;2023-01-28T06:15:40;102274.50;;;3.04;99.99
36748;BME280;22716;51.556;5.080;2023-01-28T06:18:08;102286.91;;;3.11;99.65
36748;BME280;22716;51.556;5.080;2023-01-28T06:20:40;102276.53;;;3.11;99.75
36748;BME280;22716;51.556;5.080;2023-01-28T06:23:08;102276.69;;;3.14;99.34
36748;BME280;22716;51.556;5.080;2023-01-28T06:25:37;102274.00;;;3.12;99.57
36748;BME280;22716;51.556;5.080;2023-01-28T06:28:06;102278.88;;;3.05;99.20
36748;BME280;22716;51.556;5.080;2023-01-28T06:30:35;102281.34;;;3.02;99.08
36748;BME280;22716;51.556;5.080;2023-01-28T06:33:03;102261.88;;;2.91;99.02
36748;BME280;22716;51.556;5.080;2023-01-28T06:35:32;102278.63;;;2.99;98.83
36748;BME280;22716;51.556;5.080;2023-01-28T06:38:03;102276.06;;;3.00;98.66
36748;BME280;22716;51.556;5.080;2023-01-28T06:40:32;102277.72;;;2.98;98.87
36748;BME280;22716;51.556;5.080;2023-01-28T06:43:01;102268.81;;;2.92;98.66
36748;BME280;22716;51.556;5.080;2023-01-28T06:45:30;102287.19;;;2.98;98.73
36748;BME280;22716;51.556;5.080;2023-01-28T06:47:59;102290.72;;;3.00;98.77
36748;BME280;22716;51.556;5.080;2023-01-28T06:50:28;102288.84;;;2.96;98.81
36748;BME280;22716;51.556;5.080;2023-01-28T06:52:56;102291.44;;;2.96;98.66
36748;BME280;22716;51.556;5.080;2023-01-28T06:55:28;102290.59;;;2.97;98.98
36748;BME280;22716;51.556;5.080;2023-01-28T06:57:57;102295.91;;;3.00;98.67
36748;BME280;22716;51.556;5.080;2023-01-28T07:00:26;102287.06;;;2.95;98.55
36748;BME280;22716;51.556;5.080;2023-01-28T07:02:54;102293.56;;;3.06;98.64
36748;BME280;22716;51.556;5.080;2023-01-28T07:05:24;102290.22;;;3.08;98.63
36748;BME280;22716;51.556;5.080;2023-01-28T07:07:53;102302.50;;;3.12;98.88
36748;BME280;22716;51.556;5.080;2023-01-28T07:10:22;102299.78;;;3.09;98.85
36748;BME280;22716;51.556;5.080;2023-01-28T07:12:53;102298.06;;;3.10;98.89
36748;BME280;22716;51.556;5.080;2023-01-28T07:15:22;102307.53;;;3.09;99.11
36748;BME280;22716;51.556;5.080;2023-01-28T07:17:51;102307.50;;;3.08;99.15
36748;BME280;22716;51.556;5.080;2023-01-28T07:20:19;102316.06;;;3.07;99.31
36748;BME280;22716;51.556;5.080;2023-01-28T07:22:48;102314.25;;;3.04;99.34
36748;BME280;22716;51.556;5.080;2023-01-28T07:25:17;102318.38;;;3.01;99.46
36748;BME280;22716;51.556;5.080;2023-01-28T07:27:48;102303.34;;;2.92;99.43
36748;BME280;22716;51.556;5.080;2023-01-28T07:30:20;102321.78;;;3.00;99.22
36748;BME280;22716;51.556;5.080;2023-01-28T07:32:52;102326.16;;;3.01;99.38
36748;BME280;22716;51.556;5.080;2023-01-28T07:35:22;102329.56;;;3.00;99.20
36748;BME280;22716;51.556;5.080;2023-01-28T07:37:51;102326.91;;;2.98;99.15
36748;BME280;22716;51.556;5.080;2023-01-28T07:40:22;102327.53;;;2.93;99.09
36748;BME280;22716;51.556;5.080;2023-01-28T07:42:51;102329.56;;;3.00;99.26
36748;BME280;22716;51.556;5.080;2023-01-28T07:45:24;102329.28;;;2.94;99.36
36748;BME280;22716;51.556;5.080;2023-01-28T07:47:56;102302.88;;;2.81;99.31
36748;BME280;22716;51.556;5.080;2023-01-28T07:50:26;102337.06;;;2.94;99.20
36748;BME280;22716;51.556;5.080;2023-01-28T07:52:56;102332.91;;;2.97;99.01
36748;BME280;22716;51.556;5.080;2023-01-28T07:55:25;102326.84;;;2.97;98.94
36748;BME280;22716;51.556;5.080;2023-01-28T07:57:55;102332.84;;;2.96;98.84
36748;BME280;22716;51.556;5.080;2023-01-28T08:00:28;102339.78;;;2.97;98.77
36748;BME280;22716;51.556;5.080;2023-01-28T08:02:59;102324.06;;;2.92;98.89
36748;BME280;22716;51.556;5.080;2023-01-28T08:05:32;102335.94;;;2.87;99.09
36748;BME280;22716;51.556;5.080;2023-01-28T08:08:06;102328.06;;;2.86;99.08
36748;BME280;22716;51.556;5.080;2023-01-28T08:10:36;102353.44;;;2.93;99.35
36748;BME280;22716;51.556;5.080;2023-01-28T08:13:06;102351.88;;;2.96;99.33
36748;BME280;22716;51.556;5.080;2023-01-28T08:15:38;102356.78;;;2.90;99.18
36748;BME280;22716;51.556;5.080;2023-01-28T08:18:08;102354.94;;;2.88;99.10
36748;BME280;22716;51.556;5.080;2023-01-28T08:20:38;102358.75;;;2.96;99.13
36748;BME280;22716;51.556;5.080;2023-01-28T08:23:10;102376.16;;;3.00;98.74
36748;BME280;22716;51.556;5.080;2023-01-28T08:25:39;102375.16;;;2.96;98.76
36748;BME280;22716;51.556;5.080;2023-01-28T08:28:09;102370.59;;;2.91;98.81
36748;BME280;22716;51.556;5.080;2023-01-28T08:30:41;102372.84;;;2.83;98.39
36748;BME280;22716;51.556;5.080;2023-01-28T08:33:16;102377.53;;;2.92;98.21
36748;BME280;22716;51.556;5.080;2023-01-28T08:35:45;102368.53;;;2.83;98.13
36748;BME280;22716;51.556;5.080;2023-01-28T08:38:14;102358.06;;;2.80;98.00
36748;BME280;22716;51.556;5.080;2023-01-28T08:40:44;102370.59;;;2.91;98.18
36748;BME280;22716;51.556;5.080;2023-01-28T08:43:15;102382.84;;;2.95;98.17
36748;BME280;22716;51.556;5.080;2023-01-28T08:45:46;102382.22;;;3.00;98.02
36748;BME280;22716;51.556;5.080;2023-01-28T08:48:17;102381.34;;;3.00;98.12
36748;BME280;22716;51.556;5.080;2023-01-28T08:50:46;102371.69;;;2.96;98.29
36748;BME280;22716;51.556;5.080;2023-01-28T08:53:17;102384.81;;;3.00;98.17
36748;BME280;22716;51.556;5.080;2023-01-28T08:55:46;102392.59;;;3.00;98.34
36748;BME280;22716;51.556;5.080;2023-01-28T08:58:17;102386.66;;;3.03;98.15
36748;BME280;22716;51.556;5.080;2023-01-28T09:00:49;102388.16;;;2.98;98.34
36748;BME280;22716;51.556;5.080;2023-01-28T09:03:18;102398.38;;;2.95;98.66
36748;BME280;22716;51.556;5.080;2023-01-28T09:05:46;102402.06;;;3.00;99.24
36748;BME280;22716;51.556;5.080;2023-01-28T09:08:16;102402.28;;;3.04;99.44
36748;BME280;22716;51.556;5.080;2023-01-28T09:10:45;102396.16;;;3.02;99.77
36748;BME280;22716;51.556;5.080;2023-01-28T09:13:15;102394.44;;;3.03;100.00
36748;BME280;22716;51.556;5.080;2023-01-28T09:15:44;102376.88;;;2.96;100.00
36748;BME280;22716;51.556;5.080;2023-01-28T09:18:15;102392.06;;;3.07;100.00
36748;BME280;22716;51.556;5.080;2023-01-28T09:20:44;102386.94;;;3.09;100.00
36748;BME280;22716;51.556;5.080;2023-01-28T09:23:13;102414.94;;;3.17;100.00
36748;BME280;22716;51.556;5.080;2023-01-28T09:25:42;102413.66;;;3.08;100.00
36748;BME280;22716;51.556;5.080;2023-01-28T09:28:11;102423.94;;;3.06;100.00
36748;BME280;22716;51.556;5.080;2023-01-28T09:30:39;102430.28;;;3.13;100.00
36748;BME280;22716;51.556;5.080;2023-01-28T09:33:08;102419.94;;;3.13;100.00
36748;BME280;22716;51.556;5.080;2023-01-28T09:35:39;102445.44;;;3.23;100.00
36748;BME280;22716;51.556;5.080;2023-01-28T09:38:08;102440.44;;;3.27;100.00
36748;BME280;22716;51.556;5.080;2023-01-28T09:40:40;102439.28;;;3.21;100.00
36748;BME280;22716;51.556;5.080;2023-01-28T09:43:39;102442.56;;;3.17;100.00
36748;BME280;22716;51.556;5.080;2023-01-28T09:46:14;102445.22;;;3.18;100.00
36748;BME280;22716;51.556;5.080;2023-01-28T09:48:46;102436.28;;;3.12;99.89
36748;BME280;22716;51.556;5.080;2023-01-28T09:51:30;102440.50;;;3.10;99.63
36748;BME280;22716;51.556;5.080;2023-01-28T09:54:05;102460.28;;;3.08;99.22
36748;BME280;22716;51.556;5.080;2023-01-28T09:56:42;102450.72;;;3.07;99.28
36748;BME280;22716;51.556;5.080;2023-01-28T09:59:17;102440.56;;;3.11;99.13
36748;BME280;22716;51.556;5.080;2023-01-28T10:01:52;102446.63;;;3.12;98.93
36748;BME280;22716;51.556;5.080;2023-01-28T10:04:31;102456.56;;;3.03;98.72
36748;BME280;22716;51.556;5.080;2023-01-28T10:07:17;102464.44;;;3.04;99.21
36748;BME280;22716;51.556;5.080;2023-01-28T10:09:54;102465.19;;;3.02;98.99
36748;BME280;22716;51.556;5.080;2023-01-28T10:12:43;102464.06;;;2.97;98.93
36748;BME280;22716;51.556;5.080;2023-01-28T10:15:29;102462.16;;;2.93;98.90
36748;BME280;22716;51.556;5.080;2023-01-28T10:18:06;102466.66;;;2.97;98.88
36748;BME280;22716;51.556;5.080;2023-01-28T10:20:39;102461.31;;;2.94;98.55
36748;BME280;22716;51.556;5.080;2023-01-28T10:23:17;102463.81;;;2.91;98.86
36748;BME280;22716;51.556;5.080;2023-01-28T10:25:49;102475.03;;;2.91;98.78
36748;BME280;22716;51.556;5.080;2023-01-28T10:28:20;102475.72;;;2.87;98.36
36748;BME280;22716;51.556;5.080;2023-01-28T10:30:50;102472.91;;;2.82;98.28
36748;BME280;22716;51.556;5.080;2023-01-28T10:33:22;102423.09;;;2.69;98.66
36748;BME280;22716;51.556;5.080;2023-01-28T10:35:56;102455.63;;;3.01;98.33
36748;BME280;22716;51.556;5.080;2023-01-28T10:38:29;102462.44;;;3.18;98.02
36748;BME280;22716;51.556;5.080;2023-01-28T10:41:00;102462.53;;;3.19;97.77
36748;BME280;22716;51.556;5.080;2023-01-28T10:43:32;102464.63;;;3.09;98.01
36748;BME280;22716;51.556;5.080;2023-01-28T10:46:04;102464.72;;;3.10;98.24
36748;BME280;22716;51.556;5.080;2023-01-28T10:48:37;102462.41;;;3.16;98.42
36748;BME280;22716;51.556;5.080;2023-01-28T10:51:09;102445.06;;;3.15;98.20
36748;BME280;22716;51.556;5.080;2023-01-28T10:53:44;102424.22;;;3.12;98.18
36748;BME280;22716;51.556;5.080;2023-01-28T10:56:15;102434.97;;;3.21;98.09
36748;BME280;22716;51.556;5.080;2023-01-28T10:58:49;102412.06;;;3.11;97.98
36748;BME280;22716;51.556;5.080;2023-01-28T11:01:23;102427.75;;;3.33;98.06
36748;BME280;22716;51.556;5.080;2023-01-28T11:03:53;102422.28;;;3.47;97.82
36748;BME280;22716;51.556;5.080;2023-01-28T11:06:24;102425.22;;;3.54;97.91
36748;BME280;22716;51.556;5.080;2023-01-28T11:08:56;102422.25;;;3.66;97.77
36748;BME280;22716;51.556;5.080;2023-01-28T11:11:26;102420.44;;;3.63;97.67
36748;BME280;22716;51.556;5.080;2023-01-28T11:13:55;102424.28;;;3.73;97.17
36748;BME280;22716;51.556;5.080;2023-01-28T11:16:25;102417.38;;;3.73;97.10
36748;BME280;22716;51.556;5.080;2023-01-28T11:19:01;102424.06;;;3.87;97.31
36748;BME280;22716;51.556;5.080;2023-01-28T11:21:31;102406.00;;;3.90;96.75
36748;BME280;22716;51.556;5.080;2023-01-28T11:24:12;102406.38;;;4.00;96.38
36748;BME280;22716;51.556;5.080;2023-01-28T11:26:47;102408.59;;;3.90;96.05
36748;BME280;22716;51.556;5.080;2023-01-28T11:29:22;102405.19;;;3.91;95.68
36748;BME280;22716;51.556;5.080;2023-01-28T11:31:53;102410.00;;;4.03;95.38
36748;BME280;22716;51.556;5.080;2023-01-28T11:34:27;102388.75;;;3.91;94.99
36748;BME280;22716;51.556;5.080;2023-01-28T11:37:02;102403.50;;;3.92;94.33
36748;BME280;22716;51.556;5.080;2023-01-28T11:39:33;102395.63;;;4.11;94.10
36748;BME280;22716;51.556;5.080;2023-01-28T11:42:10;102389.09;;;4.21;93.40
36748;BME280;22716;51.556;5.080;2023-01-28T11:44:39;102383.25;;;4.26;93.17
36748;BME280;22716;51.556;5.080;2023-01-28T11:47:32;102374.94;;;4.35;92.72
36748;BME280;22716;51.556;5.080;2023-01-28T11:50:17;102358.00;;;4.43;92.38
36748;BME280;22716;51.556;5.080;2023-01-28T11:52:59;102326.00;;;4.44;91.97
36748;BME280;22716;51.556;5.080;2023-01-28T11:55:44;102327.91;;;4.48;91.63
36748;BME280;22716;51.556;5.080;2023-01-28T11:58:21;102315.06;;;4.52;91.41
36748;BME280;22716;51.556;5.080;2023-01-28T12:00:59;102308.84;;;4.47;91.08
36748;BME280;22716;51.556;5.080;2023-01-28T12:03:40;102325.75;;;4.60;90.78
36748;BME280;22716;51.556;5.080;2023-01-28T12:06:23;102326.13;;;4.71;90.62
36748;BME280;22716;51.556;5.080;2023-01-28T12:09:00;102311.69;;;4.77;90.19
36748;BME280;22716;51.556;5.080;2023-01-28T12:11:42;102306.94;;;4.89;90.12
36748;BME280;22716;51.556;5.080;2023-01-28T12:14:34;102291.03;;;5.05;89.63
36748;BME280;22716;51.556;5.080;2023-01-28T12:17:14;102304.34;;;5.15;89.26
36748;BME280;22716;51.556;5.080;2023-01-28T12:20:00;102315.16;;;5.27;88.88
36748;BME280;22716;51.556;5.080;2023-01-28T12:25:38;102341.81;;;5.46;88.26
36748;BME280;22716;51.556;5.080;2023-01-28T12:28:21;102322.22;;;5.56;88.08
36748;BME280;22716;51.556;5.080;2023-01-28T12:31:11;102344.66;;;5.79;87.74
36748;BME280;22716;51.556;5.080;2023-01-28T12:34:03;102345.31;;;5.97;87.04
36748;BME280;22716;51.556;5.080;2023-01-28T12:36:44;102351.34;;;5.96;86.86
36748;BME280;22716;51.556;5.080;2023-01-28T12:39:27;102362.41;;;5.89;86.66
36748;BME280;22716;51.556;5.080;2023-01-28T12:42:04;102355.94;;;5.78;86.43
36748;BME280;22716;51.556;5.080;2023-01-28T12:44:43;102358.41;;;5.50;86.69
36748;BME280;22716;51.556;5.080;2023-01-28T12:47:17;102354.69;;;5.42;86.85
36748;BME280;22716;51.556;5.080;2023-01-28T12:49:51;102367.69;;;5.42;86.64
36748;BME280;22716;51.556;5.080;2023-01-28T12:52:24;102351.38;;;5.46;86.64
36748;BME280;22716;51.556;5.080;2023-01-28T12:54:59;102349.91;;;5.54;86.10
36748;BME280;22716;51.556;5.080;2023-01-28T12:57:31;102355.41;;;5.38;86.66
36748;BME280;22716;51.556;5.080;2023-01-28T13:00:18;102358.88;;;5.38;86.59
36748;BME280;22716;51.556;5.080;2023-01-28T13:02:54;102357.84;;;5.33;86.72
36748;BME280;22716;51.556;5.080;2023-01-28T13:05:30;102356.72;;;5.25;86.48
36748;BME280;22716;51.556;5.080;2023-01-28T13:08:05;102338.91;;;5.12;86.70
36748;BME280;22716;51.556;5.080;2023-01-28T13:10:39;102345.13;;;5.17;86.94
36748;BME280;22716;51.556;5.080;2023-01-28T13:13:15;102343.28;;;5.13;86.80
36748;BME280;22716;51.556;5.080;2023-01-28T13:15:48;102350.41;;;5.19;86.91
36748;BME280;22716;51.556;5.080;2023-01-28T13:18:40;102344.16;;;5.14;87.01
36748;BME280;22716;51.556;5.080;2023-01-28T13:21:32;102328.28;;;5.06;87.15
36748;BME280;22716;51.556;5.080;2023-01-28T13:24:18;102330.63;;;4.98;87.26
36748;BME280;22716;51.556;5.080;2023-01-28T13:26:51;102325.47;;;5.00;87.49
36748;BME280;22716;51.556;5.080;2023-01-28T13:29:31;102325.56;;;5.01;87.23
36748;BME280;22716;51.556;5.080;2023-01-28T13:32:27;102319.41;;;4.99;87.15